Time;durP1;ratioP1;P1;durP2;ratioP2;P2;SDS_P1;SDS_P2;PMS_P1;PMS_P2;Temp;Humidity;BMP_temperature;BMP_pressure;BME280_temperature;BME280_humidity;BME280_pressure;Samples;Min_cycle;Max_cycle;Signal;HPM_P1;HPM_P2
2022/09/06 00:01:57;;;;;;;8.07;7.27;;;15.60;99.90;;;;;;5092592;28;20318;-77
2022/09/06 00:04:25;;;;;;;10.73;7.53;;;15.60;99.90;;;;;;5092609;28;20230;-75
2022/09/06 00:06:53;;;;;;;9.20;8.20;;;15.60;99.90;;;;;;5092302;28;20215;-76
2022/09/06 00:09:23;;;;;;;8.43;7.53;;;15.50;99.90;;;;;;5092089;28;20211;-77
2022/09/06 00:11:52;;;;;;;9.27;7.77;;;15.40;99.90;;;;;;5091532;28;20222;-75
2022/09/06 00:14:20;;;;;;;13.17;8.47;;;15.40;99.90;;;;;;5092040;28;20836;-75
2022/09/06 00:16:48;;;;;;;8.77;7.87;;;15.40;99.90;;;;;;5092034;28;20210;-75
2022/09/06 00:19:16;;;;;;;9.20;8.30;;;15.40;99.90;;;;;;5092511;28;20203;-77
2022/09/06 00:21:44;;;;;;;11.50;8.20;;;15.40;99.90;;;;;;5093054;28;20215;-76
2022/09/06 00:24:12;;;;;;;8.30;7.50;;;15.30;99.90;;;;;;5092713;28;20657;-78
2022/09/06 00:26:42;;;;;;;11.87;7.97;;;15.30;99.90;;;;;;5092192;28;20211;-76
2022/09/06 00:29:10;;;;;;;10.80;8.90;;;15.20;99.90;;;;;;5091587;28;20692;-76
2022/09/06 00:31:38;;;;;;;11.93;8.63;;;15.20;99.90;;;;;;5091800;28;20245;-76
2022/09/06 00:34:06;;;;;;;9.97;8.97;;;15.20;99.90;;;;;;5091692;28;20297;-76
2022/09/06 00:36:35;;;;;;;14.17;9.77;;;15.20;99.90;;;;;;5091335;28;20249;-77
2022/09/06 00:39:03;;;;;;;11.57;9.63;;;15.30;99.90;;;;;;5091568;28;20613;-77
2022/09/06 00:41:31;;;;;;;10.83;9.17;;;15.20;99.90;;;;;;5091630;28;20238;-77
2022/09/06 00:44:01;;;;;;;10.07;9.07;;;15.20;99.90;;;;;;5091476;28;20314;-75
2022/09/06 00:46:31;;;;;;;11.90;9.77;;;15.20;99.90;;;;;;5093866;28;20207;-75
2022/09/06 00:49:07;;;;;;;12.23;10.40;;;15.20;99.90;;;;;;5095049;28;20207;-77
2022/09/06 00:51:36;;;;;;;12.37;11.10;;;15.20;99.90;;;;;;5095303;28;20203;-76
2022/09/06 00:54:07;;;;;;;12.73;11.43;;;15.20;99.90;;;;;;5095034;28;20207;-78
2022/09/06 00:56:40;;;;;;;12.27;11.13;;;15.30;99.90;;;;;;5095273;28;20837;-77
2022/09/06 00:59:13;;;;;;;11.30;10.17;;;15.20;99.90;;;;;;5094383;28;20248;-76
2022/09/06 01:01:42;;;;;;;13.47;12.10;;;15.20;99.90;;;;;;5094973;28;20191;-76
2022/09/06 01:04:10;;;;;;;13.90;11.70;;;15.20;99.90;;;;;;5094843;28;20237;-77
2022/09/06 01:06:48;;;;;;;12.67;11.47;;;15.10;99.90;;;;;;5094760;28;20264;-76
2022/09/06 01:09:28;;;;;;;12.80;11.60;;;15.10;99.90;;;;;;5094578;28;20203;-77
2022/09/06 01:12:08;;;;;;;13.70;12.30;;;15.10;99.90;;;;;;5094219;28;20231;-77
2022/09/06 01:14:49;;;;;;;13.77;12.27;;;15.10;99.90;;;;;;5094816;28;20282;-75
2022/09/06 01:17:25;;;;;;;15.73;13.53;;;15.00;99.90;;;;;;5094389;28;20231;-75
2022/09/06 01:20:25;;;;;;;14.10;12.63;;;15.00;99.90;;;;;;5078409;28;20215;-77
2022/09/06 01:23:20;;;;;;;13.83;12.30;;;15.00;99.90;;;;;;5088431;28;20265;-75
2022/09/06 01:26:01;;;;;;;15.27;13.67;;;15.00;99.90;;;;;;5094743;28;20191;-77
2022/09/06 01:28:35;;;;;;;14.90;13.40;;;14.90;99.90;;;;;;5094217;28;20191;-78
2022/09/06 01:31:17;;;;;;;15.17;13.67;;;14.90;99.90;;;;;;5093930;28;20257;-78
2022/09/06 01:33:51;;;;;;;15.17;13.60;;;14.90;99.90;;;;;;5094592;28;20187;-76
2022/09/06 01:36:23;;;;;;;14.23;12.73;;;14.80;99.90;;;;;;5094004;28;20644;-77
2022/09/06 01:38:51;;;;;;;15.77;13.80;;;14.80;99.90;;;;;;5093881;28;20303;-78
2022/09/06 01:41:19;;;;;;;15.43;13.83;;;14.80;99.90;;;;;;5094291;28;20294;-75
2022/09/06 01:43:52;;;;;;;15.50;14.00;;;14.80;99.90;;;;;;5093926;28;20222;-75
2022/09/06 01:46:27;;;;;;;15.10;13.70;;;14.70;99.90;;;;;;5093975;28;20205;-79
2022/09/06 01:49:10;;;;;;;17.10;14.77;;;14.70;99.90;;;;;;5093993;28;20194;-77
2022/09/06 01:51:51;;;;;;;16.20;14.53;;;14.70;99.90;;;;;;5077022;28;20211;-77
2022/09/06 01:54:39;;;;;;;14.90;13.50;;;14.70;99.90;;;;;;5094100;28;20229;-77
2022/09/06 01:57:18;;;;;;;16.53;13.87;;;14.60;99.90;;;;;;5093628;28;20562;-77
2022/09/06 02:00:07;;;;;;;14.83;13.33;;;14.60;99.90;;;;;;5093321;28;20201;-77
2022/09/06 02:02:48;;;;;;;15.27;13.80;;;14.50;99.90;;;;;;5093698;28;20202;-76
2022/09/06 02:05:23;;;;;;;15.63;14.13;;;14.50;99.90;;;;;;5093275;28;20290;-76
2022/09/06 02:07:56;;;;;;;16.70;14.90;;;14.40;99.90;;;;;;5093648;28;20199;-75
2022/09/06 02:10:28;;;;;;;16.77;14.63;;;14.40;99.90;;;;;;5092994;28;20203;-75
2022/09/06 02:13:00;;;;;;;17.67;15.70;;;14.40;99.90;;;;;;5093560;28;20301;-76
2022/09/06 02:15:34;;;;;;;16.17;14.67;;;14.40;99.90;;;;;;5093537;28;20283;-76
2022/09/06 02:18:08;;;;;;;16.33;14.83;;;14.30;99.90;;;;;;5093213;28;20692;-76
2022/09/06 02:20:41;;;;;;;19.37;16.47;;;14.30;99.90;;;;;;5093063;28;20234;-77
2022/09/06 02:23:11;;;;;;;16.10;14.50;;;14.30;99.90;;;;;;5092924;28;20223;-76
2022/09/06 02:25:43;;;;;;;17.60;15.90;;;14.30;99.90;;;;;;5093196;28;20214;-75
2022/09/06 02:28:11;;;;;;;16.53;14.83;;;14.20;99.90;;;;;;5093446;28;20198;-76
2022/09/06 02:30:45;;;;;;;19.60;16.70;;;14.20;99.90;;;;;;5092751;28;20257;-78
2022/09/06 02:33:18;;;;;;;17.37;15.57;;;14.20;99.90;;;;;;5092999;28;20213;-76
2022/09/06 02:35:50;;;;;;;18.23;16.20;;;14.30;99.90;;;;;;5093257;28;20632;-76
2022/09/06 02:38:20;;;;;;;17.20;15.40;;;14.20;99.90;;;;;;5093213;28;20294;-77
2022/09/06 02:40:50;;;;;;;17.60;15.90;;;14.20;99.90;;;;;;5092941;28;20274;-77
2022/09/06 02:43:18;;;;;;;16.97;15.07;;;14.10;99.90;;;;;;5092822;28;20257;-76
2022/09/06 02:45:47;;;;;;;19.87;16.90;;;14.10;99.90;;;;;;5092864;28;20298;-76
2022/09/06 02:48:16;;;;;;;21.50;19.33;;;14.10;99.90;;;;;;5092580;28;20694;-76
2022/09/06 02:50:44;;;;;;;21.67;19.47;;;14.10;99.90;;;;;;5092301;28;20747;-78
2022/09/06 02:53:14;;;;;;;23.27;20.63;;;14.10;99.90;;;;;;5093051;28;20251;-77
2022/09/06 02:55:43;;;;;;;20.30;18.20;;;14.10;99.90;;;;;;5092829;28;20227;-75
2022/09/06 02:58:12;;;;;;;20.37;18.40;;;14.10;99.90;;;;;;5092843;28;20203;-77
2022/09/06 03:00:40;;;;;;;22.60;19.97;;;14.10;99.90;;;;;;5092452;28;20211;-77
2022/09/06 03:03:09;;;;;;;20.97;18.87;;;14.10;99.90;;;;;;5092461;28;20249;-77
2022/09/06 03:05:38;;;;;;;19.87;17.87;;;14.10;99.90;;;;;;5092441;28;20232;-75
2022/09/06 03:08:07;;;;;;;21.10;18.70;;;14.00;99.90;;;;;;5092132;28;20235;-76
2022/09/06 03:10:35;;;;;;;22.30;19.90;;;13.90;99.90;;;;;;5091927;28;20294;-77
2022/09/06 03:13:03;;;;;;;22.03;19.73;;;13.90;99.90;;;;;;5092559;28;20230;-76
2022/09/06 03:15:31;;;;;;;21.57;19.37;;;13.90;99.90;;;;;;5092704;28;20297;-78
2022/09/06 03:18:00;;;;;;;22.17;19.87;;;13.90;99.90;;;;;;5092392;28;20253;-77
2022/09/06 03:20:30;;;;;;;21.10;18.90;;;13.80;99.90;;;;;;5092090;28;20294;-79
2022/09/06 03:23:04;;;;;;;24.80;22.27;;;13.80;99.90;;;;;;5092389;28;20201;-75
2022/09/06 03:25:32;;;;;;;25.17;22.73;;;13.80;99.90;;;;;;5092497;28;20222;-78
2022/09/06 03:28:03;;;;;;;24.60;22.20;;;13.80;99.90;;;;;;5092567;28;20198;-77
2022/09/06 03:30:31;;;;;;;26.23;23.27;;;13.80;99.90;;;;;;5091640;28;20215;-78
2022/09/06 03:33:00;;;;;;;25.17;22.77;;;13.80;99.90;;;;;;5092455;28;20207;-76
2022/09/06 03:35:31;;;;;;;27.07;23.80;;;13.80;99.90;;;;;;5095191;28;20275;-76
2022/09/06 03:37:59;;;;;;;26.57;23.33;;;13.70;99.90;;;;;;5071755;28;20677;-77
2022/09/06 03:40:27;;;;;;;26.53;23.53;;;13.70;99.90;;;;;;5071753;28;20211;-75
2022/09/06 03:42:55;;;;;;;28.50;25.57;;;13.70;99.90;;;;;;5072039;28;20280;-75
2022/09/06 03:45:23;;;;;;;27.07;24.43;;;13.70;99.90;;;;;;5072021;28;20219;-76
2022/09/06 03:47:51;;;;;;;25.00;22.60;;;13.80;99.90;;;;;;5072068;28;20634;-77
2022/09/06 03:50:20;;;;;;;26.33;23.67;;;13.70;99.90;;;;;;5071805;28;20222;-75
2022/09/06 03:52:49;;;;;;;26.80;23.97;;;13.70;99.90;;;;;;5071648;28;20207;-76
2022/09/06 03:55:18;;;;;;;25.80;23.20;;;13.70;99.90;;;;;;5071685;28;20569;-75
2022/09/06 03:57:47;;;;;;;24.27;21.80;;;13.70;99.90;;;;;;5071757;28;20261;-76
2022/09/06 04:00:16;;;;;;;25.03;22.33;;;13.70;99.90;;;;;;5071552;28;20302;-77
2022/09/06 04:02:44;;;;;;;24.37;22.00;;;13.60;99.90;;;;;;5071707;28;20577;-76
2022/09/06 04:05:15;;;;;;;23.03;20.60;;;13.60;99.90;;;;;;5071674;28;20220;-76
2022/09/06 04:07:44;;;;;;;23.27;20.90;;;13.60;99.90;;;;;;5071227;28;20203;-77
2022/09/06 04:10:13;;;;;;;23.33;20.93;;;13.60;99.90;;;;;;5071348;28;20235;-78
2022/09/06 04:12:42;;;;;;;22.20;20.07;;;13.60;99.90;;;;;;5071665;28;20628;-75
2022/09/06 04:15:10;;;;;;;21.87;19.57;;;13.60;99.90;;;;;;5071375;28;20725;-76
2022/09/06 04:17:38;;;;;;;22.40;20.20;;;13.60;99.90;;;;;;5079444;28;20253;-76
2022/09/06 04:20:09;;;;;;;23.60;20.63;;;13.60;99.90;;;;;;5091519;28;20246;-77
2022/09/06 04:22:37;;;;;;;21.07;18.83;;;13.50;99.90;;;;;;5095625;28;20710;-77
2022/09/06 04:25:06;;;;;;;22.57;20.27;;;13.50;99.90;;;;;;5095667;28;20233;-75
2022/09/06 04:27:35;;;;;;;21.20;19.10;;;13.50;99.90;;;;;;5096089;28;20211;-75
2022/09/06 04:30:04;;;;;;;21.43;19.23;;;13.40;99.90;;;;;;5088473;28;20238;-78
2022/09/06 04:32:33;;;;;;;21.07;18.97;;;13.40;99.90;;;;;;5074834;28;20246;-76
2022/09/06 04:35:02;;;;;;;20.47;18.23;;;13.40;99.90;;;;;;5075075;28;20238;-76
2022/09/06 04:37:30;;;;;;;21.97;19.77;;;13.30;99.90;;;;;;5075041;28;20242;-75
2022/09/06 04:39:58;;;;;;;19.87;18.00;;;13.30;99.90;;;;;;5074523;28;20277;-78
2022/09/06 04:42:26;;;;;;;19.57;17.63;;;13.30;99.90;;;;;;5074614;28;20215;-78
2022/09/06 04:44:55;;;;;;;19.57;17.67;;;13.30;99.90;;;;;;5074563;28;20258;-76
2022/09/06 04:47:24;;;;;;;21.17;18.90;;;13.30;99.90;;;;;;5074900;28;20208;-78
2022/09/06 04:49:53;;;;;;;20.93;18.63;;;13.30;99.90;;;;;;5074449;28;20654;-76
2022/09/06 04:52:21;;;;;;;21.73;19.43;;;13.30;99.90;;;;;;5074969;28;20294;-76
2022/09/06 04:54:51;;;;;;;20.70;18.43;;;13.30;99.90;;;;;;5074643;28;20427;-75
2022/09/06 04:57:20;;;;;;;21.93;18.67;;;13.30;99.90;;;;;;5074409;28;20261;-76
2022/09/06 04:59:48;;;;;;;18.27;16.50;;;13.30;99.90;;;;;;5073933;28;20331;-78
2022/09/06 05:02:18;;;;;;;19.53;17.63;;;13.30;99.90;;;;;;5074847;28;20208;-75
2022/09/06 05:04:46;;;;;;;19.70;17.70;;;13.40;99.90;;;;;;5074306;28;20766;-78
2022/09/06 05:07:14;;;;;;;19.60;17.50;;;13.40;99.90;;;;;;5074906;28;20242;-76
2022/09/06 05:09:45;;;;;;;19.60;17.60;;;13.40;99.90;;;;;;5074019;28;20269;-76
2022/09/06 05:12:13;;;;;;;20.70;17.63;;;13.50;99.90;;;;;;5074672;28;20242;-78
2022/09/06 05:14:41;;;;;;;20.40;17.27;;;13.50;99.90;;;;;;5074679;28;20192;-75
2022/09/06 05:17:09;;;;;;;18.47;16.67;;;13.60;99.90;;;;;;5090076;28;20293;-78
2022/09/06 05:19:39;;;;;;;19.20;16.27;;;13.60;99.90;;;;;;5094508;28;20616;-76
2022/09/06 05:22:08;;;;;;;18.70;16.70;;;13.70;99.90;;;;;;5094801;28;20577;-76
2022/09/06 05:24:36;;;;;;;18.37;16.60;;;13.80;99.90;;;;;;5094327;28;20269;-78
2022/09/06 05:27:06;;;;;;;17.77;16.07;;;13.90;99.90;;;;;;5094732;28;20217;-76
2022/09/06 05:29:34;;;;;;;17.17;15.37;;;13.90;99.90;;;;;;5094449;28;20256;-76
2022/09/06 05:32:02;;;;;;;17.30;15.30;;;14.00;99.90;;;;;;5094144;28;20633;-76
2022/09/06 05:34:31;;;;;;;15.17;13.70;;;14.10;99.90;;;;;;5094446;28;20207;-77
2022/09/06 05:37:00;;;;;;;16.03;14.30;;;14.20;99.90;;;;;;5094538;28;20625;-76
2022/09/06 05:39:28;;;;;;;16.53;14.83;;;14.30;99.90;;;;;;5094063;28;20206;-77
2022/09/06 05:41:57;;;;;;;15.97;14.43;;;14.40;99.90;;;;;;5094075;28;20215;-77
2022/09/06 05:44:25;;;;;;;16.67;14.97;;;14.40;99.90;;;;;;5093764;28;20297;-77
2022/09/06 05:46:53;;;;;;;16.93;14.33;;;14.50;99.90;;;;;;5093999;28;20217;-76
2022/09/06 05:49:21;;;;;;;15.80;14.30;;;14.50;99.90;;;;;;5094020;28;20293;-76
2022/09/06 05:51:51;;;;;;;15.10;13.60;;;14.50;99.90;;;;;;5093773;28;20306;-78
2022/09/06 05:54:20;;;;;;;460.13;37.90;;;14.60;99.90;;;;;;5094268;28;20265;-77
